Kinniconick, Kentucky
Current Conditions -  °F | °C
As of 3:15 AM on Thursday 27 Nov 2014 (Local Time) from KFGX Reporting Station
Overcast Overcast  
Wind Chill: 26°   Ceiling: 6000
Heat Index: 31°   Visibility: 7mi
Dew Point: 27°   Wind: 5mph
Humidity: 83%   Direction: 350°N
Pressure: 30.07"   Gusts: NA
Location:  38.4929°N, 83.3898°W
Report Text: KFGX 270815Z AUTO 35004KT 7SM BKN060 OVC080 00/M03 A3007 RMK AO2 T10051030
Loading
Personal Weather Stations






























Interactive Weather Map New forecast layout! Learn more

10-Day Weather Forecast

Advertisements
Track Severe Weather on mobile